Home > Products > Valid Products > TAF

000
FTUS44 KTSA 311700
TAFXNA
TAF
KXNA 311721Z 3118/0118 29009KT P6SM FEW019 FEW025
     FM311900 25005KT P6SM SCT025
     FM010100 VRB03KT P6SM SCT250
     FM010600 00000KT 4SM BR SCT080
     FM010900 00000KT 2SM BR SCT015 SCT080
      TEMPO 0111/0114 2SM BKN008
     FM011400 15007KT 5SM BR BKN025
     FM011600 16010G18KT P6SM BKN025=



000
FTUS44 KTSA 311700
TAFRVS
TAF
KRVS 311721Z 3118/0118 34006KT P6SM SCT020
     FM312100 12005KT P6SM SCT040 SCT250
     FM010900 14005KT 3SM BR SCT015 BKN080
      TEMPO 0111/0115 3SM BR BKN015
     FM011500 15012KT P6SM BKN050=



000
FTUS44 KTSA 311700
TAFFSM
TAF
KFSM 311721Z 3118/0118 28004KT P6SM SKC
     FM010100 VRB03KT P6SM BKN250
     FM010400 VRB03KT P6SM VCTS BKN050CB
     FM010900 VRB03KT 5SM BR BKN080
      TEMPO 0110/0114 3SM BR BKN025
     FM011400 11010KT P6SM BKN035=



000
FTUS44 KTSA 311700
TAFFYV
TAF
KFYV 311721Z 3118/0118 27004KT 5SM HZ SCT035
     FM311900 25005KT P6SM SCT035
     FM010600 00000KT 4SM BR SCT080
     FM010900 00000KT 2SM BR SCT015 SCT080
      TEMPO 0111/0114 2SM BKN008
     FM011400 15007KT 5SM BR BKN025
     FM011600 16010G18KT P6SM BKN025=



000
FTUS44 KTSA 311700
TAFMLC
TAF
KMLC 311721Z 3118/0118 21006KT P6SM SCT110
     FM010100 15005KT P6SM VCTS SCT050CB BKN100 PROB30 0103/0107 5SM
      -TSRA BKN040CB
     FM010800 14005KT P6SM BKN080
     FM011500 17010G18KT P6SM BKN035=



000
FTUS44 KTSA 311700
TAFTUL
TAF
KTUL 311721Z 3118/0118 34007KT P6SM SCT020
     FM312100 12005KT P6SM SCT040 SCT250
     FM010900 14005KT P6SM SCT015 BKN080
      TEMPO 0111/0115 3SM BR BKN015
     FM011500 15012G19KT P6SM BKN050=



000
FTUS44 KTSA 311700
TAFRVS
TAF
KRVS 311721Z 3118/0118 34006KT P6SM SCT020
     FM312100 12005KT P6SM SCT040 SCT250
     FM010900 14005KT 3SM BR SCT015 BKN080
      TEMPO 0111/0115 3SM BR BKN015
     FM011500 15012KT P6SM BKN050=



000
FTUS44 KTSA 311700
TAFMLC
TAF
KMLC 311721Z 3118/0118 21006KT P6SM SCT110
     FM010100 15005KT P6SM VCTS SCT050CB BKN100 PROB30 0103/0107 5SM
      -TSRA BKN040CB
     FM010800 14005KT P6SM BKN080
     FM011500 17010G18KT P6SM BKN035=



000
FTUS44 KTSA 311700
TAFTUL
TAF
KTUL 311721Z 3118/0118 34007KT P6SM SCT020
     FM312100 12005KT P6SM SCT040 SCT250
     FM010900 14005KT P6SM SCT015 BKN080
      TEMPO 0111/0115 3SM BR BKN015
     FM011500 15012G19KT P6SM BKN050=



000
FTUS44 KTSA 311700
TAFXNA
TAF
KXNA 311721Z 3118/0118 29009KT P6SM FEW019 FEW025
     FM311900 25005KT P6SM SCT025
     FM010100 VRB03KT P6SM SCT250
     FM010600 00000KT 4SM BR SCT080
     FM010900 00000KT 2SM BR SCT015 SCT080
      TEMPO 0111/0114 2SM BKN008
     FM011400 15007KT 5SM BR BKN025
     FM011600 16010G18KT P6SM BKN025=



000
FTUS44 KTSA 311700
TAFFYV
TAF
KFYV 311721Z 3118/0118 27004KT 5SM HZ SCT035
     FM311900 25005KT P6SM SCT035
     FM010600 00000KT 4SM BR SCT080
     FM010900 00000KT 2SM BR SCT015 SCT080
      TEMPO 0111/0114 2SM BKN008
     FM011400 15007KT 5SM BR BKN025
     FM011600 16010G18KT P6SM BKN025=



000
FTUS44 KTSA 311700
TAFFSM
TAF
KFSM 311721Z 3118/0118 28004KT P6SM SKC
     FM010100 VRB03KT P6SM BKN250
     FM010400 VRB03KT P6SM VCTS BKN050CB
     FM010900 VRB03KT 5SM BR BKN080
      TEMPO 0110/0114 3SM BR BKN025
     FM011400 11010KT P6SM BKN035=



000
FTUS44 KTSA 311600 AAG
TAFRVS
TAF AMD
KRVS 311625Z 3116/0112 VRB03KT P6SM SCT025
     FM312100 12005KT P6SM SCT040 SCT250
     FM010900 14005KT 3SM BR BKN080=



000
FTUS44 KTSA 311600 AAD
TAFXNA
TAF AMD
KXNA 311624Z 3116/0112 25008KT P6SM BKN015
     FM311900 25005KT P6SM SCT025
     FM010100 VRB03KT P6SM SCT250
     FM010600 00000KT 4SM BR SCT080
     FM010900 00000KT 2SM BR SCT080=



000
FTUS44 KTSA 311600 AAC
TAFFYV
TAF AMD
KFYV 311623Z 3116/0112 20006KT P6SM BKN025
     FM311900 25005KT P6SM SCT035
     FM010100 VRB03KT P6SM SCT250
     FM010600 00000KT 4SM BR SCT080
     FM010900 00000KT 2SM BR SCT080=



000
FTUS44 KTSA 311600 AAC
TAFFYV
TAF AMD
KFYV 311623Z 3116/0112 20006KT P6SM BKN025
     FM311900 25005KT P6SM SCT035
     FM010100 VRB03KT P6SM SCT250
     FM010600 00000KT 4SM BR SCT080
     FM010900 00000KT 2SM BR SCT080=



000
FTUS44 KTSA 311600 AAC
TAFTUL
TAF AMD
KTUL 311621Z 3116/0112 VRB03KT P6SM SCT010
     FM312100 12005KT P6SM SCT040 SCT250
     FM010900 14005KT P6SM BKN080
      TEMPO 0109/0112 3SM BR=



000
FTUS44 KTSA 311600 AAC
TAFTUL
TAF AMD
KTUL 311621Z 3116/0112 VRB03KT P6SM SCT010
     FM312100 12005KT P6SM SCT040 SCT250
     FM010900 14005KT P6SM BKN080
      TEMPO 0109/0112 3SM BR=



000
FTUS44 KTSA 311600 AAD
TAFTUL
TAF AMD
KTUL 311621Z 3116/0112 VRB03KT P6SM SCT010
     FM312100 12005KT P6SM SCT040 SCT250
     FM010900 14005KT P6SM BKN080
      TEMPO 0109/0112 3SM BR=



000
FTUS44 KTSA 311600 AAD
TAFTUL
TAF AMD
KTUL 311621Z 3116/0112 VRB03KT P6SM SCT010
     FM312100 12005KT P6SM SCT040 SCT250
     FM010900 14005KT P6SM BKN080
      TEMPO 0109/0112 3SM BR=



000
FTUS44 KTSA 311500 AAF
TAFRVS
TAF AMD
KRVS 311549Z 3116/0112 22005KT 6SM BR BKN010
     FM311700 22005KT P6SM SCT025
     FM312100 12005KT P6SM SCT040 SCT250
     FM010900 14005KT 3SM BR BKN080=



000
FTUS44 KTSA 311500 AAE
TAFRVS
TAF AMD
KRVS 311531Z 3116/0112 22005KT 6SM BR BKN006
     FM311700 22005KT P6SM SCT025
     FM312100 12005KT P6SM SCT040 SCT250
     FM010900 14005KT 3SM BR BKN080=



000
FTUS44 KTSA 311500 AAD
TAFRVS
TAF AMD
KRVS 311509Z 3115/0112 18005KT 4SM BR BKN006
      TEMPO 3115/3116 6SM BR BKN010
     FM311600 18005KT 6SM BR BKN015
     FM311700 18005KT P6SM BKN035
     FM312100 12005KT P6SM SCT040 SCT250
     FM010900 14005KT 3SM BR BKN080=



000
FTUS44 KTSA 311500 AAD
TAFRVS
TAF AMD
KRVS 311509Z 3115/0112 18005KT 4SM BR BKN006
      TEMPO 3115/3116 6SM BR BKN010
     FM311600 18005KT 6SM BR BKN015
     FM311700 18005KT P6SM BKN035
     FM312100 12005KT P6SM SCT040 SCT250
     FM010900 14005KT 3SM BR BKN080=



000
FTUS44 KTSA 311400 AAC
TAFRVS
TAF AMD
KRVS 311455Z 3115/0112 18005KT 6SM BR SCT004 BKN010
      TEMPO 3115/3116 4SM BR BKN004
     FM311700 18005KT P6SM BKN025
     FM312100 12005KT P6SM SCT040 SCT250
     FM010900 14005KT 3SM BR BKN080=



000
FTUS44 KTSA 311400 AAC
TAFRVS
TAF AMD
KRVS 311455Z 3115/0112 18005KT 6SM BR SCT004 BKN010
      TEMPO 3115/3116 4SM BR BKN004
     FM311700 18005KT P6SM BKN025
     FM312100 12005KT P6SM SCT040 SCT250
     FM010900 14005KT 3SM BR BKN080=



000
FTUS44 KTSA 311400 AAB
TAFTUL
TAF AMD
KTUL 311426Z 3114/0112 18005KT P6SM BKN015
      TEMPO 3114/3116 3SM BR BKN006
     FM312100 12005KT P6SM SCT040 SCT250
     FM010900 14005KT P6SM BKN080
      TEMPO 0109/0112 3SM BR=



000
FTUS44 KTSA 311400 AAB
TAFRVS
TAF AMD
KRVS 311426Z 3114/0112 18005KT 3SM BR SCT003 BKN015
      TEMPO 3114/3116 2SM BR BKN003
     FM311700 18005KT P6SM SCT250
     FM312100 12005KT P6SM SCT040 SCT250
     FM010900 14005KT 3SM BR BKN080=



000
FTUS44 KTSA 311400 AAB
TAFTUL
TAF AMD
KTUL 311426Z 3114/0112 18005KT P6SM BKN015
      TEMPO 3114/3116 3SM BR BKN006
     FM312100 12005KT P6SM SCT040 SCT250
     FM010900 14005KT P6SM BKN080
      TEMPO 0109/0112 3SM BR=



000
FTUS44 KTSA 311400 AAB
TAFRVS
TAF AMD
KRVS 311426Z 3114/0112 18005KT 3SM BR SCT003 BKN015
      TEMPO 3114/3116 2SM BR BKN003
     FM311700 18005KT P6SM SCT250
     FM312100 12005KT P6SM SCT040 SCT250
     FM010900 14005KT 3SM BR BKN080=



000
FTUS44 KTSA 311200 AAC
TAFXNA
TAF AMD
KXNA 311259Z 3113/0112 19005KT P6SM SCT010 BKN035
      TEMPO 3113/3114 1SM BR BKN015
     FM311500 24006KT P6SM SCT025 SCT250
     FM010100 VRB03KT P6SM SCT250
     FM010600 00000KT 4SM BR SCT080
     FM010900 00000KT 2SM BR SCT080=



000
FTUS44 KTSA 311200 AAC
TAFXNA
TAF AMD
KXNA 311259Z 3113/0112 19005KT P6SM SCT010 BKN035
      TEMPO 3113/3114 1SM BR BKN015
     FM311500 24006KT P6SM SCT025 SCT250
     FM010100 VRB03KT P6SM SCT250
     FM010600 00000KT 4SM BR SCT080
     FM010900 00000KT 2SM BR SCT080=



000
FTUS44 KTSA 311200 AAB
TAFFYV
TAF AMD
KFYV 311250Z 3113/0112 19005KT P6SM SCT015 BKN035
      TEMPO 3113/3115 6SM BR
     FM311500 23006KT P6SM SCT035 SCT250
     FM010100 VRB03KT P6SM SCT250
     FM010600 00000KT 4SM BR SCT080
     FM010900 00000KT 2SM BR SCT080=



000
FTUS44 KTSA 311200 AAB
TAFFYV
TAF AMD
KFYV 311250Z 3113/0112 19005KT P6SM SCT015 BKN035
      TEMPO 3113/3115 6SM BR
     FM311500 23006KT P6SM SCT035 SCT250
     FM010100 VRB03KT P6SM SCT250
     FM010600 00000KT 4SM BR SCT080
     FM010900 00000KT 2SM BR SCT080=



000
FTUS44 KTSA 311200 AAB
TAFXNA
TAF AMD
KXNA 311238Z 3113/0112 19005KT P6SM SCT010 BKN035
      TEMPO 3113/3115 6SM BR BKN008
     FM311500 24006KT P6SM SCT025 SCT250
     FM010100 VRB03KT P6SM SCT250
     FM010600 00000KT 4SM BR SCT080
     FM010900 00000KT 2SM BR SCT080=



000
FTUS44 KTSA 311200 AAB
TAFXNA
TAF AMD
KXNA 311238Z 3113/0112 19005KT P6SM SCT010 BKN035
      TEMPO 3113/3115 6SM BR BKN008
     FM311500 24006KT P6SM SCT025 SCT250
     FM010100 VRB03KT P6SM SCT250
     FM010600 00000KT 4SM BR SCT080
     FM010900 00000KT 2SM BR SCT080=



000
FTUS44 KTSA 311200 AAA
TAFTUL
TAF AMD
KTUL 311231Z 3113/0112 18005KT P6SM SCT250
      TEMPO 3113/3114 6SM BR
     FM312100 12005KT P6SM SCT040 SCT250
     FM010900 14005KT P6SM BKN080
      TEMPO 0109/0112 3SM BR=



000
FTUS44 KTSA 311200 AAA
TAFTUL
TAF AMD
KTUL 311231Z 3113/0112 18005KT P6SM SCT250
      TEMPO 3113/3114 6SM BR
     FM312100 12005KT P6SM SCT040 SCT250
     FM010900 14005KT P6SM BKN080
      TEMPO 0109/0112 3SM BR=



000
FTUS44 KTSA 311200 AAA
TAFRVS
TAF AMD
KRVS 311230Z 3113/0112 18005KT 3SM BR SCT015 SCT250
      TEMPO 3113/3114 1SM BR BKN015
     FM311500 18005KT P6SM SCT250
     FM312100 12005KT P6SM SCT040 SCT250
     FM010900 14005KT 3SM BR BKN080=



000
FTUS44 KTSA 311200 AAA
TAFRVS
TAF AMD
KRVS 311230Z 3113/0112 18005KT 3SM BR SCT015 SCT250
      TEMPO 3113/3114 1SM BR BKN015
     FM311500 18005KT P6SM SCT250
     FM312100 12005KT P6SM SCT040 SCT250
     FM010900 14005KT 3SM BR BKN080=



000
FTUS44 KTSA 311200 AAA
TAFFYV
TAF AMD
KFYV 311229Z 3112/0112 19005KT P6SM SCT015 BKN035
      TEMPO 3112/3115 1SM BR BKN015
     FM311500 23006KT P6SM SCT035 SCT250
     FM010100 VRB03KT P6SM SCT250
     FM010600 00000KT 4SM BR SCT080
     FM010900 00000KT 2SM BR SCT080=



000
FTUS44 KTSA 311200 AAA
TAFXNA
TAF AMD
KXNA 311229Z 3112/0112 19005KT P6SM SCT015 BKN035
      TEMPO 3112/3115 3SM BR BKN008
     FM311500 24006KT P6SM SCT025 SCT250
     FM010100 VRB03KT P6SM SCT250
     FM010600 00000KT 4SM BR SCT080
     FM010900 00000KT 2SM BR SCT080=



000
FTUS44 KTSA 311200 AAA
TAFFYV
TAF AMD
KFYV 311229Z 3112/0112 19005KT P6SM SCT015 BKN035
      TEMPO 3112/3115 1SM BR BKN015
     FM311500 23006KT P6SM SCT035 SCT250
     FM010100 VRB03KT P6SM SCT250
     FM010600 00000KT 4SM BR SCT080
     FM010900 00000KT 2SM BR SCT080=



000
FTUS44 KTSA 311200 AAA
TAFXNA
TAF AMD
KXNA 311229Z 3112/0112 19005KT P6SM SCT015 BKN035
      TEMPO 3112/3115 3SM BR BKN008
     FM311500 24006KT P6SM SCT025 SCT250
     FM010100 VRB03KT P6SM SCT250
     FM010600 00000KT 4SM BR SCT080
     FM010900 00000KT 2SM BR SCT080=



000
FTUS44 KTSA 311100
TAFFYV
TAF
KFYV 311120Z 3112/0112 19005KT P6SM SCT015 BKN025
      TEMPO 3112/3115 BKN015
     FM311500 23006KT P6SM SCT025 SCT250
     FM010100 VRB03KT P6SM SCT250
     FM010600 00000KT 4SM BR SCT080
     FM010900 00000KT 2SM BR SCT080=



000
FTUS44 KTSA 311100
TAFXNA
TAF
KXNA 311120Z 3112/0112 19005KT P6SM SCT015 BKN025
      TEMPO 3112/3115 BKN008
     FM311500 24006KT P6SM SCT025 SCT250
     FM010100 VRB03KT P6SM SCT250
     FM010600 00000KT 4SM BR SCT080
     FM010900 00000KT 2SM BR SCT080=



000
FTUS44 KTSA 311100
TAFTUL
TAF
KTUL 311120Z 3112/0112 18005KT P6SM SCT250
      TEMPO 3112/3114 4SM BR
     FM312100 12005KT P6SM SCT040 SCT250
     FM010900 14005KT P6SM BKN080
      TEMPO 0109/0112 3SM BR=



000
FTUS44 KTSA 311100
TAFRVS
TAF
KRVS 311120Z 3112/0112 18005KT 2SM BR SCT250
      TEMPO 3112/3114 1/2SM FG BKN005
     FM311500 18005KT P6SM SCT250
     FM312100 12005KT P6SM SCT040 SCT250
     FM010900 14005KT 3SM BR BKN080=



000
FTUS44 KTSA 311100
TAFFSM
TAF
KFSM 311120Z 3112/0112 VRB03KT P6SM BKN040
     FM311700 20005KT P6SM SCT040
     FM010100 VRB03KT P6SM BKN250
     FM010500 VRB03KT P6SM VCTS BKN050CB
     FM011000 VRB03KT 5SM BR BKN080=



000
FTUS44 KTSA 311100
TAFMLC
TAF
KMLC 311120Z 3112/0112 18006KT P6SM SCT040 SCT250
     FM010300 15005KT P6SM VCTS SCT050CB BKN100 PROB30 0103/0107 5SM
      -TSRA BKN040CB
     FM010800 14005KT P6SM BKN080=



000
FTUS44 KTSA 311000 AAA
TAFTUL
TAF AMD
KTUL 311020Z 3110/0106 17005KT P6SM SCT025 BKN250
     FM311500 16004KT P6SM SCT250
     FM312200 08005KT P6SM SCT250
     FM010300 08005KT P6SM SCT050 BKN150=



000
FTUS44 KTSA 310900 AAA
TAFXNA
TAF AMD
KXNA 310917Z 3109/0106 22005KT P6SM BKN015
      TEMPO 3110/3113 4SM BR
     FM311700 21007KT P6SM BKN250
     FM010300 VRB03KT P6SM SCT050 BKN100=



000
FTUS44 KTSA 310900 AAA
TAFFYV
TAF AMD
KFYV 310916Z 3109/0106 19005KT P6SM SCT015
      TEMPO 3110/3114 BKN015
     FM311400 18007KT P6SM BKN015
     FM311700 18007KT P6SM BKN250
     FM010300 00000KT P6SM SCT050 BKN100=



000
FTUS44 KTSA 310800 AAA
TAFFSM
TAF AMD
KFSM 310808Z 3108/0106 VRB03KT P6SM BKN040
     FM311500 13004KT P6SM BKN015
     FM311700 21004KT P6SM SCT030
     FM010300 VRB03KT P6SM VCTS SCT050CB BKN150=



000
FTUS44 KTSA 310800 AAA
TAFFSM
TAF AMD
KFSM 310808Z 3108/0106 VRB03KT P6SM BKN040
     FM311500 13004KT P6SM BKN015
     FM311700 21004KT P6SM SCT030
     FM010300 VRB03KT P6SM VCTS SCT050CB BKN150=



000
FTUS44 KTSA 310800 AAA
TAFMLC
TAF AMD
KMLC 310807Z 3108/0106 19005KT 6SM BR BKN040
      TEMPO 3109/3113 4SM BR BKN025
     FM311500 18007KT P6SM BKN015
     FM311700 18007KT P6SM BKN250
     FM010300 VRB04KT P6SM VCTS SCT050CB BKN100=



000
FTUS44 KTSA 310800 AAA
TAFMLC
TAF AMD
KMLC 310807Z 3108/0106 19005KT 6SM BR BKN040
      TEMPO 3109/3113 4SM BR BKN025
     FM311500 18007KT P6SM BKN015
     FM311700 18007KT P6SM BKN250
     FM010300 VRB04KT P6SM VCTS SCT050CB BKN100=



000
FTUS44 KTSA 310500
TAFFYV
TAF
KFYV 310520Z 3106/0106 19003KT P6SM SCT250
     FM310900 18004KT 4SM BR BKN015
     FM311500 18007KT P6SM BKN015
     FM311700 18007KT P6SM BKN250
     FM010300 00000KT P6SM SCT050 BKN100=



000
FTUS44 KTSA 310500
TAFTUL
TAF
KTUL 310520Z 3106/0106 15003KT P6SM SCT150 BKN250
     FM311000 17005KT 4SM BR SCT015
     FM311500 16004KT P6SM SCT250
     FM312200 08005KT P6SM SCT250
     FM010300 08005KT P6SM SCT050 BKN150=



000
FTUS44 KTSA 310500
TAFTUL
TAF
KTUL 310520Z 3106/0106 15003KT P6SM SCT150 BKN250
     FM311000 17005KT 4SM BR SCT015
     FM311500 16004KT P6SM SCT250
     FM312200 08005KT P6SM SCT250
     FM010300 08005KT P6SM SCT050 BKN150=



000
FTUS44 KTSA 310500
TAFMLC
TAF
KMLC 310520Z 3106/0106 20005KT P6SM BKN250
     FM310800 18004KT 4SM BR BKN015
     FM311500 18007KT P6SM BKN015
     FM311700 18007KT P6SM BKN250
     FM010300 VRB04KT P6SM VCTS SCT050CB BKN100=



000
FTUS44 KTSA 310500
TAFFSM
TAF
KFSM 310520Z 3106/0106 03003KT P6SM SCT250
     FM310800 06003KT 4SM BR BKN015
     FM311500 13004KT P6SM BKN015
     FM311700 21004KT P6SM SCT030
     FM010300 VRB03KT P6SM VCTS SCT050CB BKN150=



000
FTUS44 KTSA 310500
TAFRVS
TAF
KRVS 310520Z 3106/0106 00000KT P6SM BKN250
     FM311000 17005KT 4SM BR SCT015
     FM311500 16004KT P6SM SCT250
     FM312200 08005KT P6SM SCT250
     FM010300 08004KT P6SM SCT050 BKN150=



000
FTUS44 KTSA 310500
TAFMLC
TAF
KMLC 310520Z 3106/0106 20005KT P6SM BKN250
     FM310800 18004KT 4SM BR BKN015
     FM311500 18007KT P6SM BKN015
     FM311700 18007KT P6SM BKN250
     FM010300 VRB04KT P6SM VCTS SCT050CB BKN100=



000
FTUS44 KTSA 310500
TAFXNA
TAF
KXNA 310520Z 3106/0106 00000KT P6SM SCT250
     FM310900 18004KT 4SM BR BKN015
     FM311500 21007KT P6SM BKN015
     FM311700 21007KT P6SM BKN250
     FM010300 VRB03KT P6SM SCT050 BKN100=



000
FTUS44 KTSA 310500
TAFFSM
TAF
KFSM 310520Z 3106/0106 03003KT P6SM SCT250
     FM310800 06003KT 4SM BR BKN015
     FM311500 13004KT P6SM BKN015
     FM311700 21004KT P6SM SCT030
     FM010300 VRB03KT P6SM VCTS SCT050CB BKN150=



000
FTUS44 KTSA 310500
TAFFYV
TAF
KFYV 310520Z 3106/0106 19003KT P6SM SCT250
     FM310900 18004KT 4SM BR BKN015
     FM311500 18007KT P6SM BKN015
     FM311700 18007KT P6SM BKN250
     FM010300 00000KT P6SM SCT050 BKN100=



000
FTUS44 KTSA 310500
TAFRVS
TAF
KRVS 310520Z 3106/0106 00000KT P6SM BKN250
     FM311000 17005KT 4SM BR SCT015
     FM311500 16004KT P6SM SCT250
     FM312200 08005KT P6SM SCT250
     FM010300 08004KT P6SM SCT050 BKN150=



000
FTUS44 KTSA 310500
TAFXNA
TAF
KXNA 310520Z 3106/0106 00000KT P6SM SCT250
     FM310900 18004KT 4SM BR BKN015
     FM311500 21007KT P6SM BKN015
     FM311700 21007KT P6SM BKN250
     FM010300 VRB03KT P6SM SCT050 BKN100=



000
FTUS44 KTSA 302300
TAFFSM
TAF
KFSM 302327Z 3100/3124 06007KT P6SM SKC
     FM310700 06003KT 5SM BR OVC012
     FM311000 06003KT 4SM BR OVC006
     FM311500 13004KT P6SM BKN015
     FM311700 21004KT P6SM SCT030=



000
FTUS44 KTSA 302300
TAFRVS
TAF
KRVS 302327Z 3100/3124 00000KT P6SM SCT250
     FM310800 00000KT 4SM BR SCT010
      TEMPO 3109/3113 2SM BR BKN010
     FM311400 16004KT 5SM BR SCT010
     FM311500 16004KT P6SM SKC
     FM311800 14007KT P6SM SKC=



000
FTUS44 KTSA 302300
TAFMLC
TAF
KMLC 302327Z 3100/3124 20007KT P6SM SCT040
     FM310600 18003KT 5SM BR OVC010
     FM311000 18004KT 1SM BR OVC005
     FM311500 18007KT P6SM BKN015
     FM311700 18007KT P6SM BKN025=



000
FTUS44 KTSA 302300
TAFFYV
TAF
KFYV 302327Z 3100/3124 17009KT P6SM SKC
     FM310700 00000KT 4SM BR OVC010
     FM311000 19003KT 2SM BR OVC005
     FM311500 19004KT P6SM BKN015
     FM311700 24004KT P6SM SCT030=



000
FTUS44 KTSA 302300
TAFXNA
TAF
KXNA 302327Z 3100/3124 22009KT P6SM SKC
     FM310700 18003KT 4SM BR OVC010
     FM311000 19004KT 2SM BR OVC005
     FM311500 20005KT P6SM BKN015
     FM311700 23005KT P6SM SCT030=



000
FTUS44 KTSA 302300
TAFTUL
TAF
KTUL 302327Z 3100/3124 19011KT P6SM SCT250
     FM310800 17005KT P6SM SCT010
      TEMPO 3109/3113 3SM BR BKN010
     FM311300 16004KT P6SM SKC
     FM311800 15008KT P6SM SKC=



000
FTUS44 KTSA 301700
TAFFYV
TAF
KFYV 301736Z 3018/3118 19007KT P6SM SCT250
     FM310000 00000KT P6SM SCT250
     FM310700 00000KT 4SM BR OVC010
     FM311000 19003KT 3SM BR OVC005
     FM311500 19004KT P6SM BKN015
     FM311700 24004KT P6SM SCT030=



000
FTUS44 KTSA 301700
TAFRVS
TAF
KRVS 301736Z 3018/3118 18007KT P6SM SCT250
     FM310000 00000KT P6SM SCT250
     FM310800 00000KT 4SM BR SCT010
     FM311100 00000KT 2SM BR BKN005
     FM311400 16004KT 5SM BR SCT010
     FM311500 16004KT P6SM SKC=



000
FTUS44 KTSA 301700
TAFMLC
TAF
KMLC 301736Z 3018/3118 17006KT P6SM SCT250
     FM310000 16003KT P6SM SCT250
     FM310600 18003KT 5SM BR OVC010
     FM311000 18004KT 4SM BR OVC005
     FM311500 18007KT P6SM BKN015
     FM311700 18007KT P6SM BKN025=



000
FTUS44 KTSA 301700
TAFTUL
TAF
KTUL 301736Z 3018/3118 18008KT P6SM SCT250
     FM310000 17005KT P6SM SCT250
     FM310800 17005KT P6SM SCT010
     FM311100 17004KT 4SM BR BKN005
     FM311500 16004KT P6SM SKC=



000
FTUS44 KTSA 301700
TAFFSM
TAF
KFSM 301736Z 3018/3118 10005KT P6SM SCT250
     FM310000 08003KT P6SM SCT250
     FM310700 06003KT 5SM BR OVC012
     FM311000 06003KT 4SM BR OVC006
     FM311500 13004KT P6SM BKN015
     FM311700 21004KT P6SM SCT030=



000
FTUS44 KTSA 301700
TAFXNA
TAF
KXNA 301736Z 3018/3118 19007KT P6SM SCT250
     FM310000 18003KT P6SM SCT250
     FM310700 18003KT 4SM BR OVC010
     FM311000 19004KT 3SM BR OVC005
     FM311500 20005KT P6SM BKN015
     FM311700 23005KT P6SM SCT030=



000
FTUS44 KTSA 301700
TAFFSM
TAF
KFSM 301736Z 3018/3118 10005KT P6SM SCT250
     FM310000 08003KT P6SM SCT250
     FM310700 06003KT 5SM BR OVC012
     FM311000 06003KT 4SM BR OVC006
     FM311500 13004KT P6SM BKN015
     FM311700 21004KT P6SM SCT030=



000
FTUS44 KTSA 301700
TAFRVS
TAF
KRVS 301736Z 3018/3118 18007KT P6SM SCT250
     FM310000 00000KT P6SM SCT250
     FM310800 00000KT 4SM BR SCT010
     FM311100 00000KT 2SM BR BKN005
     FM311400 16004KT 5SM BR SCT010
     FM311500 16004KT P6SM SKC=



000
FTUS44 KTSA 301700
TAFTUL
TAF
KTUL 301736Z 3018/3118 18008KT P6SM SCT250
     FM310000 17005KT P6SM SCT250
     FM310800 17005KT P6SM SCT010
     FM311100 17004KT 4SM BR BKN005
     FM311500 16004KT P6SM SKC=



000
FTUS44 KTSA 301700
TAFMLC
TAF
KMLC 301736Z 3018/3118 17006KT P6SM SCT250
     FM310000 16003KT P6SM SCT250
     FM310600 18003KT 5SM BR OVC010
     FM311000 18004KT 4SM BR OVC005
     FM311500 18007KT P6SM BKN015
     FM311700 18007KT P6SM BKN025=



000
FTUS44 KTSA 301700
TAFXNA
TAF
KXNA 301736Z 3018/3118 19007KT P6SM SCT250
     FM310000 18003KT P6SM SCT250
     FM310700 18003KT 4SM BR OVC010
     FM311000 19004KT 3SM BR OVC005
     FM311500 20005KT P6SM BKN015
     FM311700 23005KT P6SM SCT030=



000
FTUS44 KTSA 301700
TAFFYV
TAF
KFYV 301736Z 3018/3118 19007KT P6SM SCT250
     FM310000 00000KT P6SM SCT250
     FM310700 00000KT 4SM BR OVC010
     FM311000 19003KT 3SM BR OVC005
     FM311500 19004KT P6SM BKN015
     FM311700 24004KT P6SM SCT030=



000
FTUS44 KTSA 301100
TAFRVS
TAF
KRVS 301120Z 3012/3112 02003KT P6SM SKC
     FM301400 12005KT P6SM SKC
     FM301800 18008KT P6SM SCT250
     FM310000 17004KT P6SM BKN250
     FM310900 00000KT P6SM BKN025=



000
FTUS44 KTSA 301100
TAFMLC
TAF
KMLC 301120Z 3012/3112 02004KT P6SM SKC
     FM301400 10006KT P6SM SCT250
     FM301900 17007KT P6SM SCT250
     FM310600 18003KT P6SM BKN015=



000
FTUS44 KTSA 301100
TAFTUL
TAF
KTUL 301120Z 3012/3112 02005KT P6SM SKC
     FM301400 12005KT P6SM SKC
     FM301800 18008KT P6SM SCT250
     FM310900 18005KT P6SM BKN025=



000
FTUS44 KTSA 301100
TAFFSM
TAF
KFSM 301120Z 3012/3112 06003KT P6SM SKC
     FM301600 11006KT P6SM SKC
     FM310600 09005KT P6SM BKN040
     FM310900 06003KT P6SM BKN015=



000
FTUS44 KTSA 301100
TAFMLC
TAF
KMLC 301120Z 3012/3112 02004KT P6SM SKC
     FM301400 10006KT P6SM SCT250
     FM301900 17007KT P6SM SCT250
     FM310600 18003KT P6SM BKN015=



000
FTUS44 KTSA 301100
TAFRVS
TAF
KRVS 301120Z 3012/3112 02003KT P6SM SKC
     FM301400 12005KT P6SM SKC
     FM301800 18008KT P6SM SCT250
     FM310000 17004KT P6SM BKN250
     FM310900 00000KT P6SM BKN025=



000
FTUS44 KTSA 301100
TAFXNA
TAF
KXNA 301120Z 3012/3112 VRB03KT P6SM SKC
     FM301600 19007KT P6SM FEW250
     FM310000 18003KT P6SM BKN250
     FM310900 20003KT P6SM BKN020=



000
FTUS44 KTSA 301100
TAFXNA
TAF
KXNA 301120Z 3012/3112 VRB03KT P6SM SKC
     FM301600 19007KT P6SM FEW250
     FM310000 18003KT P6SM BKN250
     FM310900 20003KT P6SM BKN020=



000
FTUS44 KTSA 301100
TAFFYV
TAF
KFYV 301120Z 3012/3112 VRB03KT P6SM SKC
      TEMPO 3012/3014 4SM BR
     FM301600 19007KT P6SM FEW250
     FM310000 16003KT P6SM BKN250
     FM310900 20003KT P6SM BKN020=



000
FTUS44 KTSA 301100
TAFFYV
TAF
KFYV 301120Z 3012/3112 VRB03KT P6SM SKC
      TEMPO 3012/3014 4SM BR
     FM301600 19007KT P6SM FEW250
     FM310000 16003KT P6SM BKN250
     FM310900 20003KT P6SM BKN020=



000
FTUS44 KTSA 301100
TAFTUL
TAF
KTUL 301120Z 3012/3112 02005KT P6SM SKC
     FM301400 12005KT P6SM SKC
     FM301800 18008KT P6SM SCT250
     FM310900 18005KT P6SM BKN025=



000
FTUS44 KTSA 301100
TAFFSM
TAF
KFSM 301120Z 3012/3112 06003KT P6SM SKC
     FM301600 11006KT P6SM SKC
     FM310600 09005KT P6SM BKN040
     FM310900 06003KT P6SM BKN015=



000
FTUS44 KTSA 300500
TAFMLC
TAF
KMLC 300520Z 3006/3106 02004KT P6SM SKC
     FM301400 11006KT P6SM SKC
     FM301900 17007KT P6SM SCT250
     FM310200 17005KT P6SM BKN035=



000
FTUS44 KTSA 300500
TAFXNA
TAF
KXNA 300520Z 3006/3106 VRB03KT P6SM SKC
     FM301600 17007KT P6SM SKC
     FM310000 16003KT P6SM BKN250=



000
FTUS44 KTSA 300500
TAFFSM
TAF
KFSM 300520Z 3006/3106 06003KT P6SM SKC
     FM301600 11006KT P6SM SKC
     FM310300 09005KT P6SM BKN040=



000
FTUS44 KTSA 300500
TAFRVS
TAF
KRVS 300520Z 3006/3106 01003KT P6SM SKC
     FM301400 11005KT P6SM SKC
     FM301900 17008KT P6SM SCT250
     FM310000 17004KT P6SM BKN250=



000
FTUS44 KTSA 300500
TAFRVS
TAF
KRVS 300520Z 3006/3106 01003KT P6SM SKC
     FM301400 11005KT P6SM SKC
     FM301900 17008KT P6SM SCT250
     FM310000 17004KT P6SM BKN250=



000
FTUS44 KTSA 300500
TAFTUL
TAF
KTUL 300520Z 3006/3106 01005KT P6SM SKC
     FM301400 11005KT P6SM SKC
     FM301900 17008KT P6SM SCT250=



000
FTUS44 KTSA 300500
TAFMLC
TAF
KMLC 300520Z 3006/3106 02004KT P6SM SKC
     FM301400 11006KT P6SM SKC
     FM301900 17007KT P6SM SCT250
     FM310200 17005KT P6SM BKN035=



000
FTUS44 KTSA 300500
TAFXNA
TAF
KXNA 300520Z 3006/3106 VRB03KT P6SM SKC
     FM301600 17007KT P6SM SKC
     FM310000 16003KT P6SM BKN250=



000
FTUS44 KTSA 300500
TAFTUL
TAF
KTUL 300520Z 3006/3106 01005KT P6SM SKC
     FM301400 11005KT P6SM SKC
     FM301900 17008KT P6SM SCT250=



000
FTUS44 KTSA 300500
TAFFYV
TAF
KFYV 300520Z 3006/3106 VRB03KT P6SM SKC
     FM301600 17007KT P6SM SKC
     FM310000 16003KT P6SM BKN250=



000
FTUS44 KTSA 300500
TAFFYV
TAF
KFYV 300520Z 3006/3106 VRB03KT P6SM SKC
     FM301600 17007KT P6SM SKC
     FM310000 16003KT P6SM BKN250=



000
FTUS44 KTSA 300500
TAFFSM
TAF
KFSM 300520Z 3006/3106 06003KT P6SM SKC
     FM301600 11006KT P6SM SKC
     FM310300 09005KT P6SM BKN040=



000
FTUS44 KTSA 292300
TAFRVS
TAF
KRVS 292320Z 3000/3024 34007KT P6SM BKN150
     FM300300 01003KT P6SM SKC
     FM301400 11005KT P6SM SKC
     FM301900 17008KT P6SM SCT250=



000
FTUS44 KTSA 292300
TAFXNA
TAF
KXNA 292320Z 3000/3024 32009KT P6SM BKN110
     FM300200 33004KT P6SM SCT100
     FM300600 VRB03KT P6SM SKC
     FM301600 17007KT P6SM SKC=



000
FTUS44 KTSA 292300
TAFMLC
TAF
KMLC 292320Z 3000/3024 01008KT P6SM SCT060 BKN120
     FM300500 02004KT P6SM SKC
     FM301400 09006KT P6SM SKC
     FM301900 17007KT P6SM SCT250=



000
FTUS44 KTSA 292300
TAFFSM
TAF
KFSM 292320Z 3000/3024 31009KT P6SM SCT070 BKN120
     FM300600 06004KT P6SM SKC
     FM301600 09006KT P6SM SKC=



000
FTUS44 KTSA 292300
TAFFYV
TAF
KFYV 292320Z 3000/3024 33008KT P6SM BKN110
     FM300300 33004KT P6SM SCT100
     FM300600 VRB03KT P6SM SKC
     FM301600 17007KT P6SM SKC=



000
FTUS44 KTSA 292300
TAFTUL
TAF
KTUL 292320Z 3000/3024 34009KT P6SM BKN150
     FM300300 01005KT P6SM SKC
     FM301400 11005KT P6SM SKC
     FM301900 17008KT P6SM SCT250=



000
FTUS44 KTSA 292300
TAFRVS
TAF
KRVS 292320Z 3000/3024 34007KT P6SM BKN150
     FM300300 01003KT P6SM SKC
     FM301400 11005KT P6SM SKC
     FM301900 17008KT P6SM SCT250=



000
FTUS44 KTSA 292300
TAFFYV
TAF
KFYV 292320Z 3000/3024 33008KT P6SM BKN110
     FM300300 33004KT P6SM SCT100
     FM300600 VRB03KT P6SM SKC
     FM301600 17007KT P6SM SKC=



000
FTUS44 KTSA 292300
TAFXNA
TAF
KXNA 292320Z 3000/3024 32009KT P6SM BKN110
     FM300200 33004KT P6SM SCT100
     FM300600 VRB03KT P6SM SKC
     FM301600 17007KT P6SM SKC=



000
FTUS44 KTSA 292300
TAFFSM
TAF
KFSM 292320Z 3000/3024 31009KT P6SM SCT070 BKN120
     FM300600 06004KT P6SM SKC
     FM301600 09006KT P6SM SKC=



000
FTUS44 KTSA 292300
TAFTUL
TAF
KTUL 292320Z 3000/3024 34009KT P6SM BKN150
     FM300300 01005KT P6SM SKC
     FM301400 11005KT P6SM SKC
     FM301900 17008KT P6SM SCT250=



000
FTUS44 KTSA 292300
TAFMLC
TAF
KMLC 292320Z 3000/3024 01008KT P6SM SCT060 BKN120
     FM300500 02004KT P6SM SKC
     FM301400 09006KT P6SM SKC
     FM301900 17007KT P6SM SCT250=



000
FTUS44 KTSA 291700
TAFFYV
TAF
KFYV 291737Z 2918/3018 22010KT P6SM BKN180
     FM292200 27007KT P6SM BKN150
     FM300100 33004KT P6SM SCT100
     FM300600 12003KT P6SM SKC=



000
FTUS44 KTSA 291700
TAFTUL
TAF
KTUL 291737Z 2918/3018 23005KT P6SM FEW080 BKN180
     FM292100 34009KT P6SM BKN150
     FM300100 01005KT P6SM SKC=



000
FTUS44 KTSA 291700
TAFRVS
TAF
KRVS 291737Z 2918/3018 22005KT P6SM FEW080 BKN180
     FM292100 34009KT P6SM BKN150
     FM300100 01005KT P6SM SKC=



000
FTUS44 KTSA 291700
TAFXNA
TAF
KXNA 291737Z 2918/3018 21010KT P6SM BKN180
     FM292200 27009KT P6SM BKN150
     FM300100 33004KT P6SM SCT100
     FM300600 07004KT P6SM SKC=



000
FTUS44 KTSA 291700
TAFFSM
TAF
KFSM 291737Z 2918/3018 08010KT P6SM SKC
     FM292100 24009KT P6SM BKN150
     FM300000 34007KT P6SM BKN070
     FM300400 03005KT P6SM SCT120=



000
FTUS44 KTSA 291700
TAFMLC
TAF
KMLC 291737Z 2918/3018 18011G15KT P6SM SKC
     FM292100 24010KT P6SM BKN200
     FM300000 01008KT P6SM BKN070
     FM300900 03005KT P6SM SKC=



000
FTUS44 KTSA 291700
TAFRVS
TAF
KRVS 291737Z 2918/3018 22005KT P6SM FEW080 BKN180
     FM292100 34009KT P6SM BKN150
     FM300100 01005KT P6SM SKC=



000
FTUS44 KTSA 291700
TAFTUL
TAF
KTUL 291737Z 2918/3018 23005KT P6SM FEW080 BKN180
     FM292100 34009KT P6SM BKN150
     FM300100 01005KT P6SM SKC=



000
FTUS44 KTSA 291700
TAFFSM
TAF
KFSM 291737Z 2918/3018 08010KT P6SM SKC
     FM292100 24009KT P6SM BKN150
     FM300000 34007KT P6SM BKN070
     FM300400 03005KT P6SM SCT120=



000
FTUS44 KTSA 291700
TAFXNA
TAF
KXNA 291737Z 2918/3018 21010KT P6SM BKN180
     FM292200 27009KT P6SM BKN150
     FM300100 33004KT P6SM SCT100
     FM300600 07004KT P6SM SKC=



000
FTUS44 KTSA 291700
TAFFYV
TAF
KFYV 291737Z 2918/3018 22010KT P6SM BKN180
     FM292200 27007KT P6SM BKN150
     FM300100 33004KT P6SM SCT100
     FM300600 12003KT P6SM SKC=



000
FTUS44 KTSA 291700
TAFMLC
TAF
KMLC 291737Z 2918/3018 18011G15KT P6SM SKC
     FM292100 24010KT P6SM BKN200
     FM300000 01008KT P6SM BKN070
     FM300900 03005KT P6SM SKC=



000
FTUS44 KTSA 291600 AAA
TAFMLC
TAF AMD
KMLC 291626Z 2916/3012 18012G20KT P6SM SKC
     FM292000 23010KT P6SM BKN200
     FM300000 01008KT P6SM BKN050
     FM300900 03005KT P6SM SCT150=



000
FTUS44 KTSA 291600 AAA
TAFMLC
TAF AMD
KMLC 291626Z 2916/3012 18012G20KT P6SM SKC
     FM292000 23010KT P6SM BKN200
     FM300000 01008KT P6SM BKN050
     FM300900 03005KT P6SM SCT150=



000
FTUS44 KTSA 291600 AAA
TAFTUL
TAF AMD
KTUL 291625Z 2916/3012 21005KT P6SM FEW080 BKN180
     FM291900 24008KT P6SM BKN120
     FM292100 34009KT P6SM BKN100
     FM300100 01005KT P6SM SCT120=



000
FTUS44 KTSA 291600 AAA
TAFTUL
TAF AMD
KTUL 291625Z 2916/3012 21005KT P6SM FEW080 BKN180
     FM291900 24008KT P6SM BKN120
     FM292100 34009KT P6SM BKN100
     FM300100 01005KT P6SM SCT120=



000
FTUS44 KTSA 291100
TAFFSM
TAF
KFSM 291120Z 2912/3012 08013G19KT P6SM SKC
     FM291900 24009KT P6SM BKN120
     FM300000 34007KT P6SM BKN070
     FM300900 02005KT P6SM SCT150=



000
FTUS44 KTSA 291100
TAFRVS
TAF
KRVS 291120Z 2912/3012 16010KT P6SM SKC
     FM291400 16012G18KT P6SM SCT250
     FM291800 24008KT P6SM BKN120
     FM292100 34007KT P6SM BKN100
     FM300100 01003KT P6SM SCT120=



000
FTUS44 KTSA 291100
TAFFSM
TAF
KFSM 291120Z 2912/3012 08013G19KT P6SM SKC
     FM291900 24009KT P6SM BKN120
     FM300000 34007KT P6SM BKN070
     FM300900 02005KT P6SM SCT150=



000
FTUS44 KTSA 291100
TAFMLC
TAF
KMLC 291120Z 2912/3012 15010KT P6SM SKC
     FM291500 16011G18KT P6SM SCT250
     FM292000 23010KT P6SM BKN200
     FM300000 01008KT P6SM BKN050
     FM300900 03005KT P6SM SCT150=



000
FTUS44 KTSA 291100
TAFRVS
TAF
KRVS 291120Z 2912/3012 16010KT P6SM SKC
     FM291400 16012G18KT P6SM SCT250
     FM291800 24008KT P6SM BKN120
     FM292100 34007KT P6SM BKN100
     FM300100 01003KT P6SM SCT120=



000
FTUS44 KTSA 291100
TAFXNA
TAF
KXNA 291120Z 2912/3012 14010KT P6SM SKC
     FM291400 18011G18KT P6SM SCT250
     FM291800 21008KT P6SM BKN120
     FM292200 27007KT P6SM BKN100
     FM300100 33007KT P6SM SCT100
     FM300600 02003KT P6SM SCT250=



000
FTUS44 KTSA 291100
TAFXNA
TAF
KXNA 291120Z 2912/3012 14010KT P6SM SKC
     FM291400 18011G18KT P6SM SCT250
     FM291800 21008KT P6SM BKN120
     FM292200 27007KT P6SM BKN100
     FM300100 33007KT P6SM SCT100
     FM300600 02003KT P6SM SCT250=



000
FTUS44 KTSA 291100
TAFFYV
TAF
KFYV 291120Z 2912/3012 18008G15KT P6SM SKC
     FM291400 18011G18KT P6SM SCT250
     FM291800 21008KT P6SM BKN120
     FM292200 27007KT P6SM BKN100
     FM300100 33004KT P6SM SCT100
     FM300600 00000KT P6SM SCT250=



000
FTUS44 KTSA 291100
TAFTUL
TAF
KTUL 291120Z 2912/3012 16014G23KT P6SM SCT250
     FM291800 24010KT P6SM BKN120
     FM292100 34009KT P6SM BKN100
     FM300100 01005KT P6SM SCT120=



000
FTUS44 KTSA 291100
TAFMLC
TAF
KMLC 291120Z 2912/3012 15010KT P6SM SKC
     FM291500 16011G18KT P6SM SCT250
     FM292000 23010KT P6SM BKN200
     FM300000 01008KT P6SM BKN050
     FM300900 03005KT P6SM SCT150=



000
FTUS44 KTSA 291100
TAFFYV
TAF
KFYV 291120Z 2912/3012 18008G15KT P6SM SKC
     FM291400 18011G18KT P6SM SCT250
     FM291800 21008KT P6SM BKN120
     FM292200 27007KT P6SM BKN100
     FM300100 33004KT P6SM SCT100
     FM300600 00000KT P6SM SCT250=



000
FTUS44 KTSA 291100
TAFTUL
TAF
KTUL 291120Z 2912/3012 16014G23KT P6SM SCT250
     FM291800 24010KT P6SM BKN120
     FM292100 34009KT P6SM BKN100
     FM300100 01005KT P6SM SCT120=



000
FTUS44 KTSA 290500
TAFMLC
TAF
KMLC 290520Z 2906/3006 12008KT P6SM SKC
     FM291500 16011G18KT P6SM BKN250
     FM292000 22008KT P6SM BKN200
     FM300000 35008KT P6SM BKN070=



000
FTUS44 KTSA 290500
TAFFYV
TAF
KFYV 290520Z 2906/3006 16008KT P6SM SKC
     FM291400 18012KT P6SM BKN250
     FM291800 21007KT P6SM BKN120
     FM292200 27007KT P6SM BKN100
     FM300200 33007KT P6SM SCT100=



000
FTUS44 KTSA 290500
TAFXNA
TAF
KXNA 290520Z 2906/3006 13010KT P6SM SKC
     FM291400 18012KT P6SM BKN250
     FM291800 21007KT P6SM BKN120
     FM292200 27007KT P6SM BKN100
     FM300100 33007KT P6SM SCT100=



000
FTUS44 KTSA 290500
TAFTUL
TAF
KTUL 290520Z 2906/3006 14012KT P6SM SKC
     FM291200 16014G23KT P6SM BKN250
     FM291800 24010KT P6SM BKN120
     FM292100 35008KT P6SM BKN100
     FM300300 01004KT P6SM SCT120=



000
FTUS44 KTSA 290500
TAFMLC
TAF
KMLC 290520Z 2906/3006 12008KT P6SM SKC
     FM291500 16011G18KT P6SM BKN250
     FM292000 22008KT P6SM BKN200
     FM300000 35008KT P6SM BKN070=



000
FTUS44 KTSA 290500
TAFXNA
TAF
KXNA 290520Z 2906/3006 13010KT P6SM SKC
     FM291400 18012KT P6SM BKN250
     FM291800 21007KT P6SM BKN120
     FM292200 27007KT P6SM BKN100
     FM300100 33007KT P6SM SCT100=



000
FTUS44 KTSA 290500
TAFRVS
TAF
KRVS 290520Z 2906/3006 14010KT P6SM SKC
     FM291400 17012G18KT P6SM BKN250
     FM291800 24008KT P6SM BKN120
     FM292100 35008KT P6SM BKN100
     FM300300 01003KT P6SM SCT120=



000
FTUS44 KTSA 290500
TAFFSM
TAF
KFSM 290520Z 2906/3006 08013KT P6SM SKC
     FM291400 11010KT P6SM BKN250
     FM292100 22005KT P6SM BKN120
     FM300100 30007KT P6SM BKN070=



000
FTUS44 KTSA 290500
TAFTUL
TAF
KTUL 290520Z 2906/3006 14012KT P6SM SKC
     FM291200 16014G23KT P6SM BKN250
     FM291800 24010KT P6SM BKN120
     FM292100 35008KT P6SM BKN100
     FM300300 01004KT P6SM SCT120=



000
FTUS44 KTSA 290500
TAFFYV
TAF
KFYV 290520Z 2906/3006 16008KT P6SM SKC
     FM291400 18012KT P6SM BKN250
     FM291800 21007KT P6SM BKN120
     FM292200 27007KT P6SM BKN100
     FM300200 33007KT P6SM SCT100=



000
FTUS44 KTSA 290500
TAFFSM
TAF
KFSM 290520Z 2906/3006 08013KT P6SM SKC
     FM291400 11010KT P6SM BKN250
     FM292100 22005KT P6SM BKN120
     FM300100 30007KT P6SM BKN070=



000
FTUS44 KTSA 290500
TAFRVS
TAF
KRVS 290520Z 2906/3006 14010KT P6SM SKC
     FM291400 17012G18KT P6SM BKN250
     FM291800 24008KT P6SM BKN120
     FM292100 35008KT P6SM BKN100
     FM300300 01003KT P6SM SCT120=



000
FTUS44 KTSA 282300
TAFRVS
TAF
KRVS 282320Z 2900/2924 13008KT P6SM FEW250
     FM291400 17012G18KT P6SM BKN250
     FM291800 24008KT P6SM BKN120
     FM292100 35008KT P6SM BKN100=



000
FTUS44 KTSA 282300
TAFFSM
TAF
KFSM 282320Z 2900/2924 09014G22KT P6SM SKC
     FM290200 08010KT P6SM FEW250
     FM291400 11010KT P6SM BKN250
     FM292100 22005KT P6SM BKN120=



000
FTUS44 KTSA 282300
TAFMLC
TAF
KMLC 282320Z 2900/2924 12006KT P6SM FEW250
     FM291500 16011G18KT P6SM BKN250
     FM292000 22008KT P6SM BKN200=



000
FTUS44 KTSA 282300
TAFXNA
TAF
KXNA 282320Z 2900/2924 13008KT P6SM FEW250
     FM291400 18012KT P6SM BKN250
     FM291800 21007KT P6SM BKN120
     FM292200 27007KT P6SM BKN100=



000
FTUS44 KTSA 282300
TAFFYV
TAF
KFYV 282320Z 2900/2924 16008KT P6SM FEW250
     FM291400 18012KT P6SM BKN250
     FM291800 21007KT P6SM BKN120
     FM292200 27007KT P6SM BKN100=



000
FTUS44 KTSA 282300
TAFTUL
TAF
KTUL 282320Z 2900/2924 14010KT P6SM FEW250
     FM291200 16014G23KT P6SM BKN250
     FM291800 24010KT P6SM BKN120
     FM292100 35008KT P6SM BKN100=



    US Dept of Commerce
    National Oceanic and Atmospheric Administration
    National Weather Service
    1325 East West Highway
    Silver Spring, MD 20910
    Page Author: NWS Internet Services Team
Disclaimer
Information Quality
Credits
Glossary
Privacy Policy
Freedom of Information Act (FOIA)
About Us
Career Opportunities